Mangueirinha, Brazil
Current Conditions -  °F | °C
As of 2:00 PM on Friday 26 Dec 2014 (Local Time) from SBCH Reporting Station
Thunderstorm Thunderstorm  
Wind Chill: 81°   Ceiling: 8000
Heat Index: 86°   Visibility: 4mi
Dew Point: 75°   Wind: 7mph
Humidity: 84%   Direction: 290°WNW
Pressure: NA   Gusts: NA
Location:  25.94°S, 52.18°W
Report Text: SBCH 261600Z 29006KT 6000 -TSRA SCT030 FEW040CB BKN080 27/24 Q1018
Loading
Personal Weather Stations






























Interactive Weather Map New forecast layout! Learn more

10-Day Weather Forecast

Advertisements
Track Severe Weather on mobile